New Orleans, Louisiana
Traffic Map
Current Weather Conditions
New Orleans, Louisiana
Broken Clouds
Broken Clouds
88°
Feels Like: 98°
Wind Chill: 88° Ceiling: 3000
Heat Index: 98° Visibility: 10mi
Dew Point: 75° Wind: 13mph
Humidity: 66% Direction: 160° (SSE)
Pressure: 30.01in Gusts: 0mph
Raw Report DataK7N0 041735Z AUTO 16011KT 10SM SCT021 BKN030 BKN042 31/24 A3001 RMK AO1
Traffic Incident Summary
Active as of:
Severity:
Category:
InformationThere was an issue retrieving the traffic information for this location. Please try a different location or try again shortly.
Advertisements
Track Severe Weather on mobile